createdAt,value
2022-11-26T00:01:44.178Z,23.83
2022-11-26T00:04:11.045Z,22.42
2022-11-26T00:06:39.929Z,21.05
2022-11-26T00:09:18.275Z,20.38
2022-11-26T00:11:45.237Z,20.30
2022-11-26T00:14:15.462Z,19.05
2022-11-26T00:16:43.045Z,19.35
2022-11-26T00:19:10.180Z,18.42
2022-11-26T00:21:39.978Z,18.67
2022-11-26T00:24:19.307Z,17.13
2022-11-26T00:26:46.167Z,17.38
2022-11-26T00:29:12.995Z,17.08
2022-11-26T00:31:39.952Z,15.90
2022-11-26T00:34:06.836Z,15.98
2022-11-26T00:36:33.851Z,15.68
2022-11-26T00:39:10.361Z,16.85
2022-11-26T00:41:38.818Z,15.65
2022-11-26T00:44:20.582Z,14.77
2022-11-26T00:46:47.914Z,15.43
2022-11-26T00:49:15.546Z,14.75
2022-11-26T00:54:14.315Z,14.20
2022-11-26T00:56:41.390Z,13.75
2022-11-26T00:59:14.808Z,14.65
2022-11-26T01:01:41.920Z,14.05
2022-11-26T01:04:08.812Z,13.75
2022-11-26T01:06:45.229Z,13.48
2022-11-26T01:09:20.583Z,13.10
2022-11-26T01:11:52.361Z,12.98
2022-11-26T01:14:22.419Z,12.95
2022-11-26T01:16:56.244Z,13.32
2022-11-26T01:19:23.199Z,11.98
2022-11-26T01:21:50.036Z,12.55
2022-11-26T01:24:16.862Z,12.13
2022-11-26T01:26:44.699Z,12.38
2022-11-26T01:31:47.331Z,11.35
2022-11-26T01:34:14.392Z,10.73
2022-11-26T01:36:41.770Z,11.85
2022-11-26T01:39:20.223Z,11.43
2022-11-26T01:42:24.614Z,10.65
2022-11-26T01:44:51.449Z,10.57
2022-11-26T01:47:26.916Z,11.07
2022-11-26T01:50:30.928Z,11.45
2022-11-26T01:53:13.705Z,10.52
2022-11-26T01:55:42.538Z,10.02
2022-11-26T01:58:12.719Z,10.07
2022-11-26T02:03:08.073Z,11.32
2022-11-26T02:05:40.356Z,9.75
2022-11-26T02:08:07.295Z,9.25
2022-11-26T02:10:35.082Z,9.70
2022-11-26T02:13:02.119Z,9.90
2022-11-26T02:15:35.369Z,9.82
2022-11-26T02:18:05.617Z,9.70
2022-11-26T02:20:53.618Z,9.07
2022-11-26T02:23:26.653Z,8.85
2022-11-26T02:26:02.409Z,8.95
2022-11-26T02:29:00.828Z,8.45
2022-11-26T02:31:38.837Z,9.15
2022-11-26T02:34:22.832Z,8.57
2022-11-26T02:37:02.449Z,8.95
2022-11-26T02:41:59.335Z,8.52
2022-11-26T02:44:38.476Z,8.38
2022-11-26T02:47:10.277Z,7.78
2022-11-26T02:49:38.467Z,7.95
2022-11-26T02:52:06.289Z,7.97
2022-11-26T02:54:34.078Z,7.88
2022-11-26T02:57:04.325Z,8.30
2022-11-26T02:59:31.596Z,7.53
2022-11-26T03:02:03.227Z,7.60
2022-11-26T03:04:38.609Z,7.50
2022-11-26T03:07:06.781Z,7.18
2022-11-26T03:09:54.700Z,8.05
2022-11-26T03:12:21.931Z,7.88
2022-11-26T03:14:49.082Z,7.13
2022-11-26T03:17:16.072Z,7.70
2022-11-26T03:19:44.519Z,7.28
2022-11-26T03:22:12.178Z,7.03
2022-11-26T03:24:39.885Z,7.50
2022-11-26T03:27:06.965Z,6.82
2022-11-26T03:29:33.887Z,6.68
2022-11-26T03:32:00.759Z,6.88
2022-11-26T03:34:27.769Z,6.95
2022-11-26T03:36:54.667Z,7.00
2022-11-26T03:39:21.799Z,6.82
2022-11-26T03:41:48.627Z,6.85
2022-11-26T03:44:15.525Z,6.72
2022-11-26T03:46:42.463Z,6.07
2022-11-26T03:49:09.325Z,6.50
2022-11-26T03:51:36.235Z,6.82
2022-11-26T03:54:03.079Z,6.45
2022-11-26T03:56:29.895Z,6.43
2022-11-26T03:58:56.734Z,5.90
2022-11-26T04:01:23.732Z,6.22
2022-11-26T04:03:50.605Z,5.93
2022-11-26T04:06:17.651Z,5.93
2022-11-26T04:08:44.674Z,5.78
2022-11-26T04:11:11.655Z,6.13
2022-11-26T04:13:38.521Z,5.70
2022-11-26T04:16:05.750Z,5.90
2022-11-26T04:18:32.759Z,5.70
2022-11-26T04:20:59.636Z,6.15
2022-11-26T04:23:26.511Z,5.72
2022-11-26T04:25:53.410Z,6.25
2022-11-26T04:28:20.325Z,5.68
2022-11-26T04:30:47.121Z,5.70
2022-11-26T04:33:14.202Z,5.72
2022-11-26T04:35:41.054Z,5.93
2022-11-26T04:38:07.882Z,5.63
2022-11-26T04:40:34.864Z,5.40
2022-11-26T04:43:01.714Z,5.30
2022-11-26T04:45:28.610Z,5.57
2022-11-26T04:47:55.637Z,5.03
2022-11-26T04:50:22.955Z,5.72
2022-11-26T04:52:49.865Z,5.85
2022-11-26T04:55:17.662Z,4.80
2022-11-26T04:57:44.776Z,4.93
2022-11-26T05:00:12.484Z,4.80
2022-11-26T05:02:39.358Z,4.80
2022-11-26T05:05:06.570Z,4.97
2022-11-26T05:07:34.110Z,5.10
2022-11-26T05:10:01.122Z,4.88
2022-11-26T05:12:27.972Z,5.18
2022-11-26T05:14:54.778Z,5.13
2022-11-26T05:17:21.643Z,5.10
2022-11-26T05:19:48.575Z,5.05
2022-11-26T05:22:15.520Z,4.60
2022-11-26T05:24:42.397Z,4.70
2022-11-26T05:27:09.206Z,4.90
2022-11-26T05:29:36.055Z,4.80
2022-11-26T05:32:03.111Z,5.03
2022-11-26T05:34:30.164Z,4.38
2022-11-26T05:36:57.049Z,4.93
2022-11-26T05:39:23.932Z,4.65
2022-11-26T05:41:50.848Z,4.72
2022-11-26T05:44:17.679Z,4.32
2022-11-26T05:49:11.781Z,4.13
2022-11-26T05:51:38.609Z,4.78
2022-11-26T05:54:06.707Z,4.45
2022-11-26T05:56:33.800Z,4.43
2022-11-26T05:59:00.763Z,4.25
2022-11-26T06:01:27.712Z,4.55
2022-11-26T06:03:54.623Z,4.05
2022-11-26T06:06:21.667Z,3.92
2022-11-26T06:08:48.789Z,4.40
2022-11-26T06:11:15.663Z,4.53
2022-11-26T06:13:42.588Z,3.65
2022-11-26T06:16:09.863Z,4.03
2022-11-26T06:18:37.793Z,4.32
2022-11-26T06:21:06.506Z,4.53
2022-11-26T06:23:34.538Z,4.10
2022-11-26T06:26:01.712Z,3.95
2022-11-26T06:28:28.594Z,4.07
2022-11-26T06:30:55.446Z,3.78
2022-11-26T06:33:22.418Z,3.38
2022-11-26T06:35:49.334Z,3.85
2022-11-26T06:38:16.177Z,3.58
2022-11-26T06:40:43.008Z,3.72
2022-11-26T06:43:09.955Z,3.78
2022-11-26T06:45:36.871Z,3.50
2022-11-26T06:48:03.967Z,3.67
2022-11-26T06:50:30.834Z,3.97
2022-11-26T06:52:58.010Z,3.55
2022-11-26T06:55:24.881Z,3.63
2022-11-26T06:57:52.595Z,3.90
2022-11-26T07:00:19.915Z,3.40
2022-11-26T07:02:46.848Z,3.42
2022-11-26T07:05:13.737Z,3.28
2022-11-26T07:07:41.170Z,3.20
2022-11-26T07:10:08.499Z,3.78
2022-11-26T07:12:35.692Z,3.25
2022-11-26T07:15:02.489Z,3.25
2022-11-26T07:17:29.445Z,3.47
2022-11-26T07:19:56.380Z,3.40
2022-11-26T07:22:23.255Z,3.00
2022-11-26T07:24:50.087Z,3.47
2022-11-26T07:27:16.911Z,2.83
2022-11-26T07:29:43.829Z,3.08
2022-11-26T07:32:11.223Z,3.25
2022-11-26T07:37:05.396Z,3.03
2022-11-26T07:39:32.260Z,3.17
2022-11-26T07:41:59.170Z,2.97
2022-11-26T07:44:26.082Z,2.45
2022-11-26T07:46:52.931Z,2.80
2022-11-26T07:49:19.801Z,2.83
2022-11-26T07:51:46.647Z,3.30
2022-11-26T07:54:13.459Z,2.67
2022-11-26T07:56:40.331Z,3.10
2022-11-26T07:59:07.173Z,2.85
2022-11-26T08:01:34.109Z,2.75
2022-11-26T08:04:03.503Z,3.15
2022-11-26T08:06:30.575Z,2.85
2022-11-26T08:08:59.809Z,2.83
2022-11-26T08:11:28.694Z,2.90
2022-11-26T08:14:01.640Z,3.03
2022-11-26T08:16:29.296Z,29.58
2022-11-26T08:19:02.529Z,37.38
2022-11-26T08:21:29.383Z,29.63
2022-11-26T08:23:56.521Z,26.17
2022-11-26T08:26:33.003Z,24.13
2022-11-26T08:29:01.860Z,22.02
2022-11-26T08:31:29.493Z,19.45
2022-11-26T08:33:58.075Z,18.10
2022-11-26T08:36:25.474Z,32.28
2022-11-26T08:38:52.365Z,61.38
2022-11-26T08:41:19.284Z,55.17
2022-11-26T08:46:33.091Z,43.95
2022-11-26T08:49:00.102Z,40.42
2022-11-26T08:51:26.970Z,34.40
2022-11-26T08:53:53.890Z,29.75
2022-11-26T08:56:20.935Z,29.15
2022-11-26T08:58:49.075Z,26.73
2022-11-26T09:01:27.572Z,47.17
2022-11-26T09:03:56.733Z,76.15
2022-11-26T09:06:25.496Z,71.70
2022-11-26T09:09:10.881Z,59.78
2022-11-26T09:11:43.903Z,52.28
2022-11-26T09:14:11.487Z,46.70
2022-11-26T09:16:38.629Z,42.85
2022-11-26T09:19:06.337Z,39.75
2022-11-26T09:21:36.234Z,36.75
2022-11-26T09:24:03.482Z,34.75
2022-11-26T09:26:31.587Z,32.78
2022-11-26T09:28:58.745Z,32.28
2022-11-26T09:31:26.043Z,29.85
2022-11-26T09:33:55.817Z,63.97
2022-11-26T09:38:49.476Z,70.20
2022-11-26T09:41:38.810Z,61.20
2022-11-26T09:44:39.537Z,55.53
2022-11-26T09:47:23.791Z,53.35
2022-11-26T09:49:53.413Z,50.72
2022-11-26T09:52:23.026Z,47.72
2022-11-26T09:55:02.078Z,43.72
2022-11-26T09:57:45.848Z,42.60
2022-11-26T10:00:24.622Z,40.55
2022-11-26T10:02:56.081Z,39.50
2022-11-26T10:05:35.618Z,38.10
2022-11-26T10:08:34.745Z,34.83
2022-11-26T10:11:36.666Z,34.22
2022-11-26T10:14:07.887Z,31.77
2022-11-26T10:16:45.045Z,30.08
2022-11-26T10:19:28.297Z,28.17
2022-11-26T10:22:01.271Z,27.75
2022-11-26T10:24:37.105Z,27.52
2022-11-26T10:27:14.211Z,27.02
2022-11-26T10:29:43.451Z,26.05
2022-11-26T10:34:57.632Z,24.73
2022-11-26T10:37:26.390Z,23.38
2022-11-26T10:40:16.533Z,22.63
2022-11-26T10:42:45.398Z,21.73
2022-11-26T10:45:24.006Z,20.88
2022-11-26T10:47:50.888Z,20.65
2022-11-26T10:53:21.372Z,19.80
2022-11-26T10:55:48.594Z,19.35
2022-11-26T10:58:19.547Z,18.58
2022-11-26T11:00:54.229Z,18.30
2022-11-26T11:03:44.599Z,17.42
2022-11-26T11:06:12.626Z,18.20
2022-11-26T11:08:39.566Z,18.80
2022-11-26T11:11:25.450Z,18.52
2022-11-26T11:13:52.740Z,17.17
2022-11-26T11:16:26.471Z,17.50
2022-11-26T11:19:03.240Z,16.13
2022-11-26T11:21:39.782Z,16.15
2022-11-26T11:24:23.255Z,15.68
2022-11-26T11:26:54.954Z,15.85
2022-11-26T11:29:28.795Z,16.33
2022-11-26T11:31:57.524Z,15.82
2022-11-26T11:34:41.277Z,14.48
2022-11-26T11:37:16.958Z,15.77
2022-11-26T11:39:44.196Z,15.40
2022-11-26T11:42:28.232Z,14.52
2022-11-26T11:44:56.341Z,14.70
2022-11-26T11:47:40.664Z,11.82
2022-11-26T11:50:32.927Z,11.43
2022-11-26T11:53:20.328Z,12.20
2022-11-26T11:56:14.100Z,11.60
2022-11-26T11:58:40.961Z,11.05
2022-11-26T12:01:32.563Z,11.05
2022-11-26T12:04:08.876Z,10.77
2022-11-26T12:06:48.067Z,11.48
2022-11-26T12:09:22.759Z,10.37
2022-11-26T12:12:42.401Z,10.95
2022-11-26T12:18:00.843Z,10.38
2022-11-26T12:20:39.125Z,10.43
2022-11-26T12:23:52.150Z,10.73
2022-11-26T12:26:33.276Z,10.13
2022-11-26T12:29:11.955Z,9.75
2022-11-26T12:31:59.040Z,10.35
2022-11-26T12:34:39.722Z,10.50
2022-11-26T12:37:13.923Z,10.00
2022-11-26T12:39:53.172Z,10.05
2022-11-26T12:42:59.287Z,10.20
2022-11-26T12:45:41.327Z,10.38
2022-11-26T12:48:15.746Z,9.50
2022-11-26T12:50:46.887Z,9.63
2022-11-26T12:53:36.074Z,9.50
2022-11-26T12:56:26.393Z,8.85
2022-11-26T12:59:04.333Z,9.70
2022-11-26T13:01:32.061Z,9.45
2022-11-26T13:04:29.386Z,10.07
2022-11-26T13:06:57.009Z,9.50
2022-11-26T13:09:46.507Z,9.38
2022-11-26T13:12:31.616Z,9.57
2022-11-26T13:15:01.593Z,8.98
2022-11-26T13:17:43.953Z,8.88
2022-11-26T13:20:25.899Z,8.82
2022-11-26T13:23:15.484Z,8.40
2022-11-26T13:28:37.001Z,8.85
2022-11-26T13:31:16.790Z,8.93
2022-11-26T13:34:06.832Z,8.73
2022-11-26T13:36:51.925Z,8.40
2022-11-26T13:39:33.549Z,8.65
2022-11-26T13:42:09.738Z,8.45
2022-11-26T13:45:07.179Z,8.05
2022-11-26T13:47:47.757Z,8.27
2022-11-26T13:50:30.412Z,7.70
2022-11-26T13:52:58.597Z,7.72
2022-11-26T13:55:32.794Z,8.13
2022-11-26T13:58:02.922Z,8.30
2022-11-26T14:00:31.835Z,7.88
2022-11-26T14:03:00.183Z,7.75
2022-11-26T14:05:49.193Z,7.40
2022-11-26T14:08:36.977Z,7.45
2022-11-26T14:11:04.540Z,7.57
2022-11-26T14:13:31.498Z,7.00
2022-11-26T14:15:59.844Z,7.63
2022-11-26T14:21:25.004Z,6.88
2022-11-26T14:23:53.743Z,6.88
2022-11-26T14:26:39.607Z,7.73
2022-11-26T14:29:10.040Z,6.88
2022-11-26T14:31:59.234Z,7.25
2022-11-26T14:34:31.462Z,7.07
2022-11-26T14:37:00.485Z,7.13
2022-11-26T14:39:28.639Z,6.93
2022-11-26T14:42:02.229Z,6.80
2022-11-26T14:44:33.156Z,7.15
2022-11-26T14:47:06.795Z,6.97
2022-11-26T14:49:43.046Z,7.05
2022-11-26T14:52:20.598Z,6.85
2022-11-26T14:54:50.790Z,6.35
2022-11-26T14:57:32.247Z,6.22
2022-11-26T15:00:00.375Z,6.38
2022-11-26T15:02:29.229Z,6.97
2022-11-26T15:05:10.008Z,6.65
2022-11-26T15:07:36.931Z,6.72
2022-11-26T15:10:14.236Z,6.50
2022-11-26T15:12:44.681Z,6.50
2022-11-26T15:15:17.942Z,5.43
2022-11-26T15:17:49.460Z,6.05
2022-11-26T15:20:17.906Z,6.50
2022-11-26T15:22:50.587Z,6.28
2022-11-26T15:25:32.169Z,6.35
2022-11-26T15:28:04.953Z,5.97
2022-11-26T15:30:38.523Z,5.63
2022-11-26T15:33:08.132Z,6.15
2022-11-26T15:35:36.325Z,5.72
2022-11-26T15:38:12.715Z,5.82
2022-11-26T15:40:49.653Z,5.50
2022-11-26T15:43:21.981Z,5.28
2022-11-26T15:45:49.790Z,5.22
2022-11-26T15:48:27.986Z,5.60
2022-11-26T15:51:05.099Z,5.15
2022-11-26T15:53:34.946Z,4.85
2022-11-26T15:56:02.417Z,5.13
2022-11-26T16:01:17.795Z,5.07
2022-11-26T16:03:48.317Z,5.28
2022-11-26T16:06:41.714Z,4.68
2022-11-26T16:09:17.651Z,4.60
2022-11-26T16:11:57.639Z,4.70
2022-11-26T16:14:32.466Z,4.47
2022-11-26T16:17:10.662Z,4.63
2022-11-26T16:19:46.126Z,4.78
2022-11-26T16:22:16.290Z,4.55
2022-11-26T16:24:43.943Z,4.90
2022-11-26T16:27:22.426Z,4.40
2022-11-26T16:29:49.595Z,4.75
2022-11-26T16:32:17.596Z,4.88
2022-11-26T16:34:44.769Z,5.03
2022-11-26T16:37:28.812Z,4.35
2022-11-26T16:40:10.212Z,4.60
2022-11-26T16:42:37.057Z,4.75
2022-11-26T16:45:04.651Z,4.28
2022-11-26T16:47:34.622Z,4.30
2022-11-26T16:50:02.817Z,4.07
2022-11-26T16:52:29.742Z,25.95
2022-11-26T16:54:56.721Z,38.72
2022-11-26T16:57:25.683Z,41.33
2022-11-26T16:59:58.738Z,38.63
2022-11-26T17:02:25.797Z,35.55
2022-11-26T17:04:52.706Z,31.80
2022-11-26T17:07:25.260Z,28.33
2022-11-26T17:09:52.892Z,24.98
2022-11-26T17:17:25.167Z,18.42
2022-11-26T17:19:52.768Z,17.20
2022-11-26T17:22:20.344Z,16.50
2022-11-26T17:24:47.153Z,15.05
2022-11-26T17:27:16.709Z,13.80
2022-11-26T17:29:44.976Z,13.75
2022-11-26T17:32:13.230Z,12.68
2022-11-26T17:34:40.537Z,12.98
2022-11-26T17:37:14.314Z,11.48
2022-11-26T17:39:41.521Z,11.23
2022-11-26T17:42:08.679Z,11.30
2022-11-26T17:44:35.520Z,44.47
2022-11-26T17:47:16.496Z,57.00
2022-11-26T17:49:45.418Z,45.83
2022-11-26T17:52:12.717Z,41.88
2022-11-26T17:54:39.897Z,36.08
2022-11-26T17:57:06.903Z,34.13
2022-11-26T17:59:33.876Z,31.63
2022-11-26T18:02:02.580Z,29.05
2022-11-26T18:04:29.762Z,25.63
2022-11-26T18:07:12.477Z,25.73
2022-11-26T18:09:40.351Z,25.33
2022-11-26T18:12:08.720Z,22.75
2022-11-26T18:14:40.528Z,22.02
2022-11-26T18:17:09.711Z,22.85
2022-11-26T18:19:42.139Z,20.63
2022-11-26T18:22:13.037Z,19.27
2022-11-26T18:24:39.933Z,19.05
2022-11-26T18:27:06.801Z,18.95
2022-11-26T18:29:33.740Z,17.92
2022-11-26T18:32:00.628Z,18.05
2022-11-26T18:34:27.501Z,16.85
2022-11-26T18:36:54.524Z,16.98
2022-11-26T18:39:21.455Z,15.93
2022-11-26T18:41:48.297Z,16.92
2022-11-26T18:44:15.141Z,16.25
2022-11-26T18:46:41.959Z,16.65
2022-11-26T18:49:08.825Z,16.02
2022-11-26T18:51:36.167Z,15.43
2022-11-26T18:54:03.016Z,15.88
2022-11-26T18:56:29.820Z,14.88
2022-11-26T18:58:56.661Z,14.23
2022-11-26T19:01:31.999Z,14.13
2022-11-26T19:03:59.505Z,13.68
2022-11-26T19:06:31.273Z,14.40
2022-11-26T19:09:04.902Z,13.02
2022-11-26T19:11:32.324Z,13.00
2022-11-26T19:14:00.263Z,13.27
2022-11-26T19:16:28.049Z,12.00
2022-11-26T19:18:55.289Z,12.15
2022-11-26T19:21:27.725Z,12.48
2022-11-26T19:23:55.969Z,11.90
2022-11-26T19:26:23.759Z,10.95
2022-11-26T19:28:51.103Z,10.68
2022-11-26T19:31:20.852Z,11.30
2022-11-26T19:33:51.655Z,11.00
2022-11-26T19:36:18.525Z,9.98
2022-11-26T19:38:45.908Z,9.68
2022-11-26T19:41:13.018Z,10.45
2022-11-26T19:43:41.863Z,9.35
2022-11-26T19:46:11.846Z,9.95
2022-11-26T19:48:40.754Z,8.80
2022-11-26T19:51:08.818Z,10.07
2022-11-26T19:53:36.729Z,10.40
2022-11-26T19:56:15.200Z,9.18
2022-11-26T19:58:42.061Z,8.68
2022-11-26T20:01:10.401Z,8.90
2022-11-26T20:03:37.923Z,9.10
2022-11-26T20:06:07.167Z,8.45
2022-11-26T20:08:34.730Z,8.85
2022-11-26T20:11:06.085Z,9.05
2022-11-26T20:13:34.763Z,7.97
2022-11-26T20:16:08.213Z,7.88
2022-11-26T20:18:39.560Z,7.97
2022-11-26T20:21:10.019Z,8.15
2022-11-26T20:23:37.886Z,8.38
2022-11-26T20:26:12.367Z,7.50
2022-11-26T20:28:39.313Z,7.65
2022-11-26T20:31:06.367Z,7.45
2022-11-26T20:33:34.607Z,8.43
2022-11-26T20:36:04.448Z,56.70
2022-11-26T20:38:31.346Z,53.88
2022-11-26T20:40:58.269Z,47.10
2022-11-26T20:43:25.153Z,43.42
2022-11-26T20:46:01.405Z,40.97
2022-11-26T20:48:28.463Z,37.55
2022-11-26T20:50:55.410Z,35.45
2022-11-26T20:53:22.317Z,34.63
2022-11-26T20:55:53.356Z,33.03
2022-11-26T20:58:20.886Z,29.30
2022-11-26T21:00:47.757Z,28.30
2022-11-26T21:03:14.694Z,25.80
2022-11-26T21:05:41.656Z,25.00
2022-11-26T21:08:08.566Z,22.73
2022-11-26T21:10:35.452Z,22.60
2022-11-26T21:13:02.318Z,21.23
2022-11-26T21:15:29.235Z,20.23
2022-11-26T21:17:56.209Z,19.33
2022-11-26T21:20:23.137Z,17.48
2022-11-26T21:22:49.961Z,17.58
2022-11-26T21:25:16.880Z,16.98
2022-11-26T21:27:43.696Z,46.08
2022-11-26T21:30:11.553Z,63.13
2022-11-26T21:32:38.398Z,72.85
2022-11-26T21:35:05.654Z,64.22
2022-11-26T21:37:32.545Z,55.58
2022-11-26T21:39:59.395Z,50.70
2022-11-26T21:42:26.261Z,47.15
2022-11-26T21:44:53.143Z,42.17
2022-11-26T21:47:20.044Z,39.00
2022-11-26T21:49:46.916Z,36.50
2022-11-26T21:52:15.170Z,34.50
2022-11-26T21:54:42.000Z,31.63
2022-11-26T21:57:08.854Z,29.90
2022-11-26T21:59:35.718Z,27.65
2022-11-26T22:02:05.229Z,27.88
2022-11-26T22:04:33.085Z,25.33
2022-11-26T22:07:00.145Z,24.83
2022-11-26T22:09:27.229Z,23.55
2022-11-26T22:11:54.106Z,23.10
2022-11-26T22:14:20.964Z,22.08
2022-11-26T22:16:51.226Z,20.80
2022-11-26T22:19:18.262Z,20.35
2022-11-26T22:21:45.636Z,19.98
2022-11-26T22:24:15.984Z,20.17
2022-11-26T22:26:43.282Z,25.25
2022-11-26T22:29:12.304Z,32.05
2022-11-26T22:31:39.919Z,38.17
2022-11-26T22:34:17.587Z,34.25
2022-11-26T22:36:45.133Z,31.45
2022-11-26T22:39:14.266Z,29.17
2022-11-26T22:41:42.304Z,27.20
2022-11-26T22:44:09.557Z,26.17
2022-11-26T22:46:38.404Z,25.20
2022-11-26T22:49:06.185Z,23.10
2022-11-26T22:51:34.442Z,22.70
2022-11-26T22:54:07.137Z,22.08
2022-11-26T22:56:34.576Z,21.38
2022-11-26T22:59:01.839Z,19.98
2022-11-26T23:01:30.824Z,19.88
2022-11-26T23:03:59.023Z,19.05
2022-11-26T23:06:27.738Z,18.13
2022-11-26T23:08:55.906Z,18.30
2022-11-26T23:11:29.719Z,18.23
2022-11-26T23:13:56.986Z,17.00
2022-11-26T23:16:25.935Z,17.75
2022-11-26T23:18:57.373Z,16.15
2022-11-26T23:21:32.996Z,15.88
2022-11-26T23:24:00.129Z,15.25
2022-11-26T23:26:29.470Z,16.00
2022-11-26T23:28:58.179Z,16.13
2022-11-26T23:31:28.751Z,14.60
2022-11-26T23:33:55.791Z,14.63
2022-11-26T23:36:23.402Z,13.90
2022-11-26T23:38:50.367Z,14.48
2022-11-26T23:41:17.347Z,13.57
2022-11-26T23:43:45.098Z,17.85
2022-11-26T23:46:19.023Z,67.75
2022-11-26T23:48:46.481Z,77.72
2022-11-26T23:51:21.492Z,63.17
2022-11-26T23:53:50.683Z,56.70
2022-11-26T23:56:20.721Z,50.17
2022-11-26T23:58:57.361Z,46.55
